Time;durP1;ratioP1;P1;durP2;ratioP2;P2;SDS_P1;SDS_P2;PMS_P1;PMS_P2;Temp;Humidity;BMP_temperature;BMP_pressure;BME280_temperature;BME280_humidity;BME280_pressure;Samples;Min_cycle;Max_cycle;Signal;HPM_P1;HPM_P2
2022/08/13 00:02:10;;;;;;;12.58;9.08;;;;;;;18.96;100.00;98071.04;1810542;78;20828;-63
2022/08/13 00:04:39;;;;;;;10.58;9.40;;;;;;;18.95;100.00;98077.03;1805756;79;20911;-63
2022/08/13 00:07:08;;;;;;;10.98;9.78;;;;;;;18.95;100.00;98072.95;1806101;79;20833;-62
2022/08/13 00:09:39;;;;;;;12.25;10.20;;;;;;;18.93;100.00;98073.07;1806249;79;21413;-62
2022/08/13 00:15:21;;;;;;;12.07;8.93;;;;;;;18.95;100.00;98064.02;1805134;79;20864;-62
2022/08/13 00:17:51;;;;;;;11.68;9.85;;;;;;;18.97;100.00;98069.33;1811154;78;20954;-61
2022/08/13 00:20:22;;;;;;;10.60;9.53;;;;;;;18.99;100.00;98064.34;1810693;78;20962;-61
2022/08/13 00:22:48;;;;;;;11.60;10.48;;;;;;;19.03;100.00;98071.25;1815184;79;21225;-61
2022/08/13 00:25:15;;;;;;;11.78;10.13;;;;;;;19.05;100.00;98072.45;1812708;79;20872;-62
2022/08/13 00:27:47;;;;;;;11.00;9.90;;;;;;;19.08;100.00;98073.14;1810077;79;20868;-61
2022/08/13 00:30:15;;;;;;;9.93;9.03;;;;;;;19.10;100.00;98068.16;1815576;78;21446;-62
2022/08/13 00:32:40;;;;;;;11.33;9.13;;;;;;;19.12;100.00;98063.16;1816163;78;21476;-63
2022/08/13 00:35:08;;;;;;;10.72;9.63;;;;;;;19.10;100.00;98061.36;1815910;78;21230;-61
2022/08/13 00:37:37;;;;;;;13.78;8.78;;;;;;;19.08;100.00;98069.06;1815764;78;20859;-62
2022/08/13 00:40:11;;;;;;;9.28;8.30;;;;;;;19.06;100.00;98058.33;1810233;79;20900;-62
2022/08/13 00:42:38;;;;;;;;;;;;;;;19.05;100.00;98061.60;1811672;79;21449;-63
2022/08/13 00:45:07;;;;;;;9.53;8.30;;;;;;;19.03;100.00;98061.16;1805314;79;20371;-62
2022/08/13 00:50:20;;;;;;;10.43;9.43;;;;;;;19.00;100.00;98061.07;1808146;79;20971;-62
2022/08/13 00:52:47;;;;;;;10.48;9.50;;;;;;;18.98;100.00;98060.62;1808954;79;20991;-62
2022/08/13 00:55:17;;;;;;;11.03;9.53;;;;;;;18.94;100.00;98079.50;1806969;79;20903;-62
2022/08/13 00:57:45;;;;;;;10.58;9.48;;;;;;;18.90;100.00;98075.91;1815870;79;20835;-60
2022/08/13 01:00:19;;;;;;;9.55;8.65;;;;;;;18.90;100.00;98073.19;1815835;79;21170;-62
2022/08/13 01:02:49;;;;;;;9.75;8.70;;;;;;;18.84;100.00;98065.63;1815671;79;21386;-61
2022/08/13 01:05:16;;;;;;;14.73;8.73;;;;;;;18.81;100.00;98059.52;1806915;79;20868;-61
2022/08/13 01:07:43;;;;;;;10.60;8.73;;;;;;;18.82;100.00;98065.16;1805185;79;20903;-61
2022/08/13 01:10:11;;;;;;;11.75;9.88;;;;;;;18.84;100.00;98060.97;1805641;79;20971;-62
2022/08/13 01:12:39;;;;;;;12.82;11.18;;;;;;;18.84;100.00;98047.41;1808308;79;21214;-61
2022/08/13 01:15:12;;;;;;;10.93;9.93;;;;;;;18.85;100.00;98045.48;1816383;78;21346;-61
2022/08/13 01:17:39;;;;;;;10.90;9.80;;;;;;;18.83;100.00;98044.48;1806218;79;20907;-62
2022/08/13 01:20:20;;;;;;;12.78;9.83;;;;;;;18.84;100.00;98044.69;1806459;79;20951;-62
2022/08/13 01:22:44;;;;;;;13.65;10.70;;;;;;;18.87;100.00;98031.00;1815145;78;20868;-61
2022/08/13 01:25:11;;;;;;;13.03;10.98;;;;;;;18.86;100.00;98033.51;1815518;78;21058;-61
2022/08/13 01:27:39;;;;;;;13.43;11.48;;;;;;;18.83;100.00;98032.27;1813651;79;20887;-62
2022/08/13 01:30:09;;;;;;;14.23;11.33;;;;;;;18.83;100.00;98034.19;1805079;78;21348;-62
2022/08/13 01:32:37;;;;;;;13.98;12.07;;;;;;;18.83;100.00;98039.61;1807501;79;20966;-62
2022/08/13 01:35:06;;;;;;;13.15;11.85;;;;;;;18.87;100.00;98041.30;1815307;78;20863;-62
2022/08/13 01:37:34;;;;;;;14.83;11.78;;;;;;;18.88;100.00;98032.59;1808313;78;21403;-63
2022/08/13 01:40:04;;;;;;;14.00;12.18;;;;;;;18.89;100.00;98024.10;1809582;78;20903;-61
2022/08/13 01:42:39;;;;;;;16.17;12.05;;;;;;;18.89;100.00;98029.53;1808337;78;21466;-62
2022/08/13 01:45:07;;;;;;;12.60;11.30;;;;;;;18.88;100.00;98020.39;1809114;79;22100;-63
2022/08/13 01:50:31;;;;;;;11.43;10.28;;;;;;;18.83;100.00;98013.84;1805215;79;21230;-63
2022/08/13 01:53:04;;;;;;;11.93;10.10;;;;;;;18.83;100.00;98022.77;1809046;78;20899;-63
2022/08/13 01:55:42;;;;;;;12.20;11.00;;;;;;;18.85;100.00;98012.36;1816158;78;20903;-60
2022/08/13 01:58:19;;;;;;;12.60;11.28;;;;;;;18.84;100.00;98012.13;1813176;79;20923;-62
2022/08/13 02:00:50;;;;;;;12.40;11.03;;;;;;;18.85;100.00;98016.43;1815893;78;20864;-61
2022/08/13 02:03:17;;;;;;;11.15;10.05;;;;;;;18.83;100.00;98015.19;1805766;79;21114;-62
2022/08/13 02:05:44;;;;;;;11.48;10.32;;;;;;;18.82;100.00;98014.39;1810403;78;21339;-63
2022/08/13 02:08:12;;;;;;;12.18;10.98;;;;;;;18.83;100.00;98014.63;1815921;78;20895;-63
2022/08/13 02:10:42;;;;;;;12.37;10.88;;;;;;;18.84;100.00;98012.13;1813827;79;20919;-62
2022/08/13 02:13:17;;;;;;;11.90;10.63;;;;;;;18.85;100.00;98013.72;1816135;78;20951;-62
2022/08/13 02:15:46;;;;;;;14.30;10.65;;;;;;;18.85;100.00;98008.85;1813551;79;21222;-61
2022/08/13 02:18:17;;;;;;;11.68;10.10;;;;;;;18.85;100.00;98006.94;1814519;78;20907;-62
2022/08/13 02:20:45;;;;;;;13.10;11.33;;;;;;;18.87;100.00;98004.66;1815935;78;20860;-61
2022/08/13 02:23:22;;;;;;;12.07;10.53;;;;;;;18.87;100.00;98003.86;1814806;78;20864;-63
2022/08/13 02:25:50;;;;;;;11.22;10.00;;;;;;;18.87;100.00;98003.30;1815731;79;20954;-62
2022/08/13 02:28:19;;;;;;;12.85;9.43;;;;;;;18.85;100.00;97997.44;1815760;79;21834;-62
2022/08/13 02:30:47;;;;;;;11.38;9.93;;;;;;;18.84;100.00;97995.08;1815786;79;20860;-62
2022/08/13 02:33:14;;;;;;;10.80;9.80;;;;;;;18.83;100.00;97994.28;1815812;79;21330;-61
2022/08/13 02:35:45;;;;;;;11.08;10.05;;;;;;;18.81;100.00;97992.48;1817906;78;20855;-61
2022/08/13 02:38:12;;;;;;;10.40;9.48;;;;;;;18.78;100.00;97989.09;1815651;78;20832;-62
2022/08/13 02:43:30;;;;;;;9.70;8.70;;;;;;;18.82;100.00;97983.19;1811238;78;21461;-62
2022/08/13 02:45:57;;;;;;;9.78;8.78;;;;;;;18.86;100.00;97982.75;1808311;79;20911;-63
2022/08/13 02:48:24;;;;;;;10.08;9.08;;;;;;;18.89;100.00;97982.04;1814377;79;20828;-62
2022/08/13 02:50:52;;;;;;;10.88;9.13;;;;;;;18.87;100.00;97978.88;1809393;78;20858;-62
2022/08/13 02:53:19;;;;;;;10.90;8.60;;;;;;;18.88;100.00;97975.05;1805036;79;21230;-61
2022/08/13 02:55:49;;;;;;;8.98;8.10;;;;;;;18.88;100.00;97969.62;1811052;79;21332;-62
2022/08/13 02:58:17;;;;;;;12.65;9.05;;;;;;;18.84;100.00;97970.06;1816814;78;20876;-61
2022/08/13 03:00:49;;;;;;;11.65;9.68;;;;;;;18.78;100.00;97964.67;1815726;79;20907;-61
2022/08/13 03:03:19;;;;;;;9.60;8.70;;;;;;;18.75;100.00;97969.42;1811487;78;20892;-62
2022/08/13 03:05:45;;;;;;;12.33;8.58;;;;;;;18.75;100.00;97969.42;1806148;79;21112;-62
2022/08/13 03:08:12;;;;;;;9.93;8.90;;;;;;;18.69;100.00;97958.59;1811674;79;20863;-61
2022/08/13 03:10:40;;;;;;;10.38;9.45;;;;;;;18.66;100.00;97973.40;1811783;78;20950;-61
2022/08/13 03:13:16;;;;;;;12.15;10.60;;;;;;;18.61;100.00;97980.41;1805012;79;20939;-62
2022/08/13 03:15:46;;;;;;;13.18;9.88;;;;;;;18.60;100.00;97977.49;1804920;78;20856;-61
2022/08/13 03:18:13;;;;;;;12.40;10.85;;;;;;;18.60;100.00;97986.43;1783052;79;21062;-61
2022/08/13 03:20:40;;;;;;;15.15;13.38;;;;;;;18.61;100.00;97988.55;1805074;78;20967;-63
2022/08/13 03:23:07;;;;;;;17.00;15.20;;;;;;;18.60;100.00;97993.21;1806544;79;20995;-62
2022/08/13 03:25:34;;;;;;;17.12;15.32;;;;;;;18.59;100.00;97979.97;1808920;78;20816;-62
2022/08/13 03:28:01;;;;;;;18.55;16.75;;;;;;;18.59;100.00;97997.59;1809665;79;20864;-62
2022/08/13 03:30:30;;;;;;;16.82;14.98;;;;;;;18.59;100.00;98005.73;1814721;79;21277;-61
2022/08/13 03:32:57;;;;;;;16.37;13.98;;;;;;;18.57;100.00;98008.00;1810505;79;20951;-61
2022/08/13 03:35:24;;;;;;;16.97;14.20;;;;;;;18.57;100.00;98021.01;1807762;79;20922;-62
2022/08/13 03:37:54;;;;;;;16.23;14.20;;;;;;;18.57;100.00;98021.01;1814847;79;20907;-61
2022/08/13 03:40:24;;;;;;;16.60;14.13;;;;;;;18.58;100.00;98019.89;1813430;78;20946;-62
2022/08/13 03:42:51;;;;;;;15.10;13.48;;;;;;;18.63;100.00;98015.56;1805683;78;21108;-62
2022/08/13 03:45:21;;;;;;;14.38;12.78;;;;;;;18.68;100.00;98019.40;1808598;79;21437;-62
2022/08/13 03:47:47;;;;;;;14.85;12.15;;;;;;;18.72;100.00;98020.88;1805465;79;21458;-61
2022/08/13 03:50:14;;;;;;;12.58;10.70;;;;;;;18.75;100.00;98029.11;1805039;79;20919;-61
2022/08/13 03:52:42;;;;;;;18.87;11.38;;;;;;;18.77;100.00;98028.20;1805052;79;20927;-61
2022/08/13 03:55:13;;;;;;;11.63;10.45;;;;;;;18.79;100.00;98034.09;1805256;79;21443;-61
2022/08/13 03:57:41;;;;;;;11.48;10.28;;;;;;;18.80;100.00;98034.86;1813876;78;20900;-62
2022/08/13 04:00:29;;;;;;;11.22;9.93;;;;;;;18.81;100.00;98027.76;1814284;79;20912;-62
2022/08/13 04:02:56;;;;;;;10.68;8.95;;;;;;;18.78;100.00;98026.28;1807503;78;20939;-63
2022/08/13 04:05:23;;;;;;;9.95;8.95;;;;;;;18.75;100.00;98025.59;1820751;78;20975;-61
2022/08/13 04:07:50;;;;;;;9.73;8.73;;;;;;;18.74;100.00;98019.41;1808068;78;21097;-62
2022/08/13 04:10:18;;;;;;;10.05;9.05;;;;;;;18.71;100.00;98018.72;1820787;78;20899;-61
2022/08/13 04:12:46;;;;;;;9.85;8.80;;;;;;;18.71;100.00;98025.51;1822833;78;21344;-61
2022/08/13 04:15:12;;;;;;;10.43;8.78;;;;;;;18.71;100.00;98037.72;1822752;78;20958;-61
2022/08/13 04:17:40;;;;;;;11.08;8.48;;;;;;;18.69;100.00;98041.34;1822820;78;21044;-61
2022/08/13 04:20:10;;;;;;;11.90;9.68;;;;;;;18.66;100.00;98046.08;1802667;78;21897;-62
2022/08/13 04:22:37;;;;;;;11.20;10.05;;;;;;;18.67;100.00;98059.88;1813494;78;20859;-62
2022/08/13 04:25:07;;;;;;;11.35;9.85;;;;;;;18.68;100.00;98056.02;1818574;78;20931;-63
2022/08/13 04:27:35;;;;;;;11.85;9.10;;;;;;;18.71;100.00;98050.48;1814865;78;20884;-62
2022/08/13 04:30:02;;;;;;;11.38;8.95;;;;;;;18.75;100.00;98052.17;1821238;78;20888;-62
2022/08/13 04:32:28;;;;;;;11.45;8.20;;;;;;;18.73;100.00;98039.52;1818697;78;21348;-62
2022/08/13 04:34:55;;;;;;;8.90;8.10;;;;;;;18.71;100.00;98028.78;1822988;78;21389;-63
2022/08/13 04:37:22;;;;;;;7.97;7.17;;;;;;;18.74;100.00;98022.67;1822851;78;20979;-62
2022/08/13 04:39:51;;;;;;;8.55;7.70;;;;;;;18.76;100.00;98010.91;1819264;78;20919;-63
2022/08/13 04:42:17;;;;;;;11.90;7.00;;;;;;;18.75;100.00;98007.96;1819643;78;20951;-62
2022/08/13 04:44:44;;;;;;;6.58;5.97;;;;;;;18.76;100.00;98002.21;1811989;78;22125;-62
2022/08/13 04:47:10;;;;;;;6.20;5.60;;;;;;;18.77;100.00;97992.92;1815315;78;20936;-62
2022/08/13 04:49:38;;;;;;;12.75;6.20;;;;;;;18.78;100.00;97980.95;1813934;78;20866;-61
2022/08/13 04:52:05;;;;;;;7.33;6.60;;;;;;;18.79;100.00;98002.09;1820645;78;20841;-62
2022/08/13 04:54:32;;;;;;;8.23;7.42;;;;;;;18.80;100.00;97997.67;1822364;77;20909;-62
2022/08/13 04:56:59;;;;;;;9.83;8.93;;;;;;;18.84;100.00;98003.22;1822683;78;21057;-62
2022/08/13 04:59:25;;;;;;;9.60;8.60;;;;;;;18.85;100.00;97996.08;1791040;77;21025;-64
2022/08/13 05:01:52;;;;;;;10.85;9.10;;;;;;;18.84;100.00;97993.12;1810231;79;20947;-64
2022/08/13 05:04:19;;;;;;;10.75;9.03;;;;;;;18.82;100.00;97991.33;1781255;80;20955;-63
2022/08/13 05:06:49;;;;;;;10.72;9.70;;;;;;;18.82;100.00;97985.91;1812601;78;20915;-63
2022/08/13 05:09:15;;;;;;;11.68;10.15;;;;;;;18.84;100.00;97995.08;1814363;78;21723;-62
2022/08/13 05:11:41;;;;;;;11.33;10.23;;;;;;;18.87;100.00;97995.16;1811736;78;21007;-60
2022/08/13 05:14:08;;;;;;;11.08;10.08;;;;;;;18.88;100.00;98011.69;1813817;78;21363;-60
2022/08/13 05:16:34;;;;;;;12.53;10.68;;;;;;;18.90;100.00;98018.91;1812008;78;21392;-60
2022/08/13 05:19:03;;;;;;;12.33;11.03;;;;;;;18.88;100.00;98023.89;1811497;78;21427;-60
2022/08/13 05:21:32;;;;;;;13.58;11.53;;;;;;;18.86;100.00;98023.45;1813620;79;21232;-60
2022/08/13 05:23:58;;;;;;;12.55;11.25;;;;;;;18.83;100.00;98015.98;1813911;78;20880;-61
2022/08/13 05:26:31;;;;;;;17.05;11.53;;;;;;;18.82;100.00;98016.31;1813563;79;20876;-61
2022/08/13 05:28:56;;;;;;;13.22;10.20;;;;;;;18.80;100.00;98005.02;1811529;79;21392;-60
2022/08/13 05:31:23;;;;;;;12.03;9.90;;;;;;;18.77;100.00;98007.84;1813633;79;20936;-61
2022/08/13 05:33:49;;;;;;;12.85;9.95;;;;;;;18.75;100.00;98001.18;1780239;80;21098;-61
2022/08/13 05:36:16;;;;;;;10.30;9.28;;;;;;;18.75;100.00;97984.34;1780019;80;21030;-63
2022/08/13 05:38:42;;;;;;;10.80;9.75;;;;;;;18.80;100.00;97992.25;1780037;80;20919;-61
2022/08/13 05:41:13;;;;;;;13.30;9.83;;;;;;;18.87;100.00;97993.81;1776699;80;20916;-62
2022/08/13 05:43:39;;;;;;;10.40;9.30;;;;;;;18.94;100.00;97986.44;1780106;80;21045;-61
2022/08/13 05:46:08;;;;;;;10.25;9.25;;;;;;;18.99;100.00;97991.63;1756521;80;21105;-61
2022/08/13 05:48:38;;;;;;;10.50;9.40;;;;;;;19.04;100.00;97988.11;1734496;82;21013;-61
2022/08/13 05:51:08;;;;;;;9.13;8.23;;;;;;;19.05;100.00;97985.59;1763621;81;21426;-60
2022/08/13 05:53:36;;;;;;;11.43;8.75;;;;;;;19.03;100.00;97981.09;1763453;81;21443;-61
2022/08/13 05:56:04;;;;;;;9.70;8.80;;;;;;;19.01;100.00;97983.36;1765518;80;21003;-61
2022/08/13 05:58:31;;;;;;;10.25;8.73;;;;;;;19.04;100.00;97993.53;1763512;81;21203;-61
2022/08/13 06:03:42;;;;;;;10.28;8.93;;;;;;;19.11;100.00;97986.95;1787783;79;21002;-60
2022/08/13 06:06:15;;;;;;;9.35;8.25;;;;;;;19.15;100.00;97988.98;1787470;80;20976;-59
2022/08/13 06:08:43;;;;;;;9.10;8.00;;;;;;;19.18;100.00;97991.78;1788850;80;21054;-59
2022/08/13 06:11:16;;;;;;;8.53;7.58;;;;;;;19.25;100.00;97983.83;1788492;80;21260;-59
2022/08/13 06:13:45;;;;;;;7.87;7.08;;;;;;;19.33;100.00;97982.89;1788817;80;20892;-59
2022/08/13 06:16:13;;;;;;;7.58;6.70;;;;;;;19.39;100.00;97982.09;1788549;80;21408;-61
2022/08/13 06:18:43;;;;;;;8.00;7.20;;;;;;;19.39;100.00;97984.80;1787711;79;21057;-59
2022/08/13 06:21:12;;;;;;;7.70;6.08;;;;;;;19.43;100.00;97987.07;1788591;80;20982;-61
2022/08/13 06:23:40;;;;;;;10.45;6.62;;;;;;;19.45;100.00;97986.15;1789769;79;21168;-61
2022/08/13 06:26:10;;;;;;;10.58;7.28;;;;;;;19.47;100.00;97980.59;1785084;79;20880;-60
2022/08/13 06:28:36;;;;;;;8.50;6.25;;;;;;;19.52;100.00;97970.03;1787546;80;20907;-60
2022/08/13 06:31:08;;;;;;;7.95;6.12;;;;;;;19.56;100.00;97961.41;1797134;78;21166;-61
2022/08/13 06:33:36;;;;;;;8.70;6.10;;;;;;;19.56;100.00;97962.76;1793140;78;20977;-60
2022/08/13 06:36:16;;;;;;;6.87;6.15;;;;;;;19.61;100.00;97942.92;1800564;78;21112;-61
2022/08/13 06:38:45;;;;;;;7.33;6.10;;;;;;;19.66;100.00;97932.36;1810084;78;21486;-60
2022/08/13 06:41:12;;;;;;;10.45;7.17;;;;;;;19.68;100.00;97932.23;1820229;78;21478;-60
2022/08/13 06:43:43;;;;;;;10.50;6.92;;;;;;;19.72;100.00;97921.44;1822230;78;20867;-60
2022/08/13 06:46:11;;;;;;;10.13;7.03;;;;;;;19.77;100.00;97926.61;1818074;78;21396;-60
2022/08/13 06:48:42;;;;;;;9.00;6.37;;;;;;;19.78;100.00;97921.41;1822438;78;21206;-60
2022/08/13 06:51:11;;;;;;;8.80;6.35;;;;;;;19.79;100.00;97922.97;1822663;78;21356;-60
2022/08/13 06:58:58;;;;;;;7.80;6.80;;;;;;;19.88;100.00;97939.88;1826938;77;21015;-61
2022/08/13 07:01:27;;;;;;;7.67;6.10;;;;;;;19.92;100.00;97950.30;1810215;79;21240;-60
2022/08/13 07:03:55;;;;;;;15.40;6.87;;;;;;;19.92;100.00;97950.30;1775712;79;47863;-59
2022/08/13 07:06:27;;;;;;;10.53;7.08;;;;;;;19.94;100.00;97944.49;1784243;78;20982;-60
2022/08/13 07:08:59;;;;;;;13.90;6.83;;;;;;;19.93;100.00;97940.98;1812434;78;20939;-60
2022/08/13 07:11:28;;;;;;;12.28;6.60;;;;;;;19.93;100.00;97928.75;1808155;78;21003;-61
2022/08/13 07:13:59;;;;;;;9.45;7.20;;;;;;;19.94;100.00;97924.91;1812940;77;21681;-60
2022/08/13 07:16:30;;;;;;;8.28;6.92;;;;;;;19.91;100.00;97932.39;1807021;78;21429;-61
2022/08/13 07:18:59;;;;;;;8.00;6.47;;;;;;;19.93;100.00;97925.23;1782275;80;20879;-61
2022/08/13 07:21:26;;;;;;;9.63;6.78;;;;;;;19.92;100.00;97928.55;1814800;78;20921;-61
2022/08/13 07:23:54;;;;;;;9.90;7.10;;;;;;;19.94;100.00;97928.19;1804050;78;20920;-61
2022/08/13 07:26:24;;;;;;;10.05;6.92;;;;;;;19.96;100.00;97923.97;1815955;78;21163;-60
2022/08/13 07:28:53;;;;;;;9.55;6.58;;;;;;;19.96;100.00;97926.69;1778357;77;20960;-60
2022/08/13 07:31:29;;;;;;;10.98;6.60;;;;;;;20.00;100.00;97913.17;1812341;78;20927;-60
2022/08/13 07:33:59;;;;;;;8.50;6.37;;;;;;;19.99;100.00;97909.69;1815046;78;20853;-60
2022/08/13 07:36:31;;;;;;;7.40;6.42;;;;;;;19.99;100.00;97911.05;1822431;78;20963;-61
2022/08/13 07:39:00;;;;;;;7.33;6.22;;;;;;;19.98;100.00;97912.17;1818224;77;21209;-59
2022/08/13 07:41:27;;;;;;;7.42;6.30;;;;;;;19.97;100.00;97916.62;1808643;77;20891;-59
2022/08/13 07:43:54;;;;;;;8.38;6.35;;;;;;;19.89;100.00;97919.73;1845721;77;20872;-59
2022/08/13 07:46:21;;;;;;;8.20;6.60;;;;;;;19.83;100.00;97926.59;1848105;77;20943;-59
2022/08/13 07:48:52;;;;;;;9.38;7.35;;;;;;;19.80;100.00;97920.48;1829250;77;20867;-61
2022/08/13 07:51:20;;;;;;;9.98;7.55;;;;;;;19.74;100.00;97912.36;1843376;77;22909;-61
2022/08/13 07:53:54;;;;;;;8.13;6.90;;;;;;;19.66;100.00;97914.70;1833256;77;20876;-61
2022/08/13 07:56:28;;;;;;;7.90;6.78;;;;;;;19.56;100.00;97922.02;1818240;77;21463;-60
2022/08/13 07:59:07;;;;;;;11.97;6.78;;;;;;;19.41;100.00;97926.84;1814358;79;21003;-61
2022/08/13 08:01:49;;;;;;;7.45;6.15;;;;;;;19.25;100.00;97898.30;1807070;78;21475;-61
2022/08/13 08:04:18;;;;;;;7.17;6.05;;;;;;;19.09;100.00;97900.20;1792514;79;21894;-61
2022/08/13 08:06:46;;;;;;;6.78;5.28;;;;;;;18.98;100.00;97908.05;1811669;79;20876;-61
2022/08/13 08:09:24;;;;;;;6.50;5.78;;;;;;;18.94;100.00;97916.66;1799742;79;20942;-61
2022/08/13 08:14:37;;;;;;;7.10;5.53;;;;;;;18.98;100.00;97917.55;1797814;79;20980;-60
2022/08/13 08:17:08;;;;;;;10.18;6.08;;;;;;;19.03;100.00;97914.59;1793683;79;21242;-59
2022/08/13 08:19:37;;;;;;;7.28;5.58;;;;;;;19.04;100.00;97911.31;1812356;79;20865;-60
2022/08/13 08:22:04;;;;;;;8.35;5.78;;;;;;;19.04;100.00;97920.25;1808160;79;20955;-60
2022/08/13 08:24:32;;;;;;;6.47;5.30;;;;;;;19.06;100.00;97913.11;1797571;79;20893;-59
2022/08/13 08:27:04;;;;;;;6.40;5.50;;;;;;;19.09;100.00;97902.36;1815853;78;21370;-59
2022/08/13 08:29:33;;;;;;;6.05;5.35;;;;;;;19.06;100.00;97906.31;1822659;78;21108;-59
2022/08/13 08:32:04;;;;;;;9.33;5.40;;;;;;;19.06;100.00;97908.47;1822652;78;21517;-60
2022/08/13 08:34:30;;;;;;;6.58;5.25;;;;;;;19.01;100.00;97897.86;1821578;78;21001;-60
2022/08/13 08:36:56;;;;;;;7.03;4.67;;;;;;;18.99;100.00;97894.70;1822890;78;20995;-59
2022/08/13 08:45:00;;;;;;;4.03;3.20;;;;;;;18.97;100.00;97895.63;1822091;78;20927;-60
2022/08/13 08:47:32;;;;;;;3.92;2.95;;;;;;;19.02;100.00;97898.66;1822117;77;20915;-60
2022/08/13 08:49:59;;;;;;;3.65;3.00;;;;;;;19.10;100.00;97890.34;1820499;77;20908;-60
2022/08/13 08:53:19;;;;;;;4.62;3.70;;;;;;;19.17;100.00;97894.40;1824919;77;20950;-59
2022/08/13 08:54:54;;;;;;;5.33;4.42;;;;;;;19.22;100.00;97889.48;1831368;76;21112;-60
2022/08/13 08:57:21;;;;;;;6.20;3.92;;;;;;;19.26;100.00;97882.80;1824385;77;20966;-60
2022/08/13 08:59:48;;;;;;;5.00;3.87;;;;;;;19.33;100.00;97878.91;1822460;78;20958;-59
2022/08/13 09:02:24;;;;;;;4.25;3.67;;;;;;;19.38;100.00;97880.05;1822681;78;20872;-59
2022/08/13 09:04:57;;;;;;;6.55;4.10;;;;;;;19.42;100.00;97884.42;1822684;78;20978;-60
2022/08/13 09:07:24;;;;;;;4.53;3.98;;;;;;;19.49;100.00;97881.09;1816907;78;21719;-59
2022/08/13 09:09:58;;;;;;;5.28;4.22;;;;;;;19.56;100.00;97877.98;1844093;77;20851;-59
2022/08/13 09:12:26;;;;;;;5.05;3.72;;;;;;;19.65;100.00;97877.23;1806337;79;20944;-60
2022/08/13 09:14:53;;;;;;;5.55;4.25;;;;;;;19.76;100.00;97876.11;1833724;77;21058;-59
2022/08/13 09:17:20;;;;;;;5.47;3.77;;;;;;;19.93;100.00;97877.10;1811473;78;20964;-59
2022/08/13 09:19:47;;;;;;;4.20;3.80;;;;;;;20.08;100.00;97871.42;1801906;78;21179;-60
2022/08/13 09:22:22;;;;;;;6.70;5.25;;;;;;;20.17;100.00;97872.80;1810651;78;20964;-60
2022/08/13 09:24:52;;;;;;;5.78;4.58;;;;;;;20.27;100.00;97870.92;1822166;78;20874;-59
2022/08/13 09:27:19;;;;;;;6.12;4.40;;;;;;;20.34;100.00;97866.20;1805651;78;20929;-58
2022/08/13 09:29:48;;;;;;;4.95;4.37;;;;;;;20.43;100.00;97870.30;1808684;78;21039;-59
2022/08/13 09:32:15;;;;;;;6.12;4.62;;;;;;;20.47;100.00;97864.91;1821632;78;21182;-59
2022/08/13 09:34:45;;;;;;;5.53;4.80;;;;;;;20.53;100.00;97867.58;1825376;78;20957;-60
2022/08/13 09:37:12;;;;;;;5.85;4.90;;;;;;;20.56;100.00;97863.36;1808663;78;21369;-60
2022/08/13 09:39:54;;;;;;;5.87;4.97;;;;;;;20.55;100.00;97868.01;1812466;78;20890;-61
2022/08/13 09:42:28;;;;;;;5.03;4.53;;;;;;;20.53;100.00;97864.06;1783858;78;21089;-61
2022/08/13 09:44:58;;;;;;;7.12;4.90;;;;;;;20.49;100.00;97865.94;1821462;78;21120;-61
2022/08/13 09:47:25;;;;;;;5.65;4.90;;;;;;;20.45;100.00;97865.28;1817393;78;21444;-61
2022/08/13 09:49:51;;;;;;;5.97;4.78;;;;;;;20.46;100.00;97857.91;1805132;79;21004;-62
2022/08/13 09:52:20;;;;;;;5.47;4.97;;;;;;;20.49;100.00;97859.13;1817631;78;20949;-62
2022/08/13 09:54:48;;;;;;;5.80;5.00;;;;;;;20.49;100.00;97848.25;1821931;78;20905;-62
2022/08/13 09:57:14;;;;;;;7.85;4.95;;;;;;;20.48;100.00;97843.37;1822319;78;21439;-62
2022/08/13 09:59:41;;;;;;;8.10;5.15;;;;;;;20.52;100.00;97842.87;1816371;78;21463;-61
2022/08/13 10:02:12;;;;;;;8.50;5.05;;;;;;;20.56;100.00;97834.79;1822100;78;20878;-61
2022/08/13 10:04:41;;;;;;;6.55;5.00;;;;;;;20.60;100.00;97844.59;1822315;78;20924;-61
2022/08/13 10:07:09;;;;;;;6.37;5.03;;;;;;;20.66;100.00;97836.91;1818413;78;20870;-61
2022/08/13 10:09:36;;;;;;;5.35;4.70;;;;;;;20.74;100.00;97830.47;1805322;79;21998;-61
2022/08/13 10:12:06;;;;;;;6.78;5.40;;;;;;;20.87;100.00;97834.59;1811437;78;20886;-61
2022/08/13 10:14:33;;;;;;;6.60;4.75;;;;;;;20.97;100.00;97828.57;1822066;78;21448;-61
2022/08/13 10:17:01;;;;;;;7.58;5.20;;;;;;;21.05;100.00;97830.31;1804462;78;20964;-61
2022/08/13 10:19:28;;;;;;;6.00;4.75;;;;;;;21.14;100.00;97830.86;1815798;78;20855;-60
2022/08/13 10:21:55;;;;;;;6.58;4.90;;;;;;;21.20;100.00;97828.63;1821673;78;21757;-59
2022/08/13 10:24:22;;;;;;;7.67;4.85;;;;;;;21.23;99.21;97831.40;1818468;76;20922;-60
2022/08/13 10:26:49;;;;;;;5.72;4.47;;;;;;;21.23;98.47;97826.52;1805122;79;20925;-61
2022/08/13 10:29:15;;;;;;;5.72;4.28;;;;;;;21.15;98.25;97839.82;1798686;79;21406;-61
2022/08/13 10:31:42;;;;;;;9.28;4.10;;;;;;;21.07;98.35;97842.98;1803999;79;21005;-59
2022/08/13 10:34:08;;;;;;;5.20;4.12;;;;;;;21.01;97.59;97838.38;1803915;79;21121;-61
2022/08/13 10:36:37;;;;;;;4.40;4.00;;;;;;;20.97;97.89;97842.98;1806560;77;20879;-59
2022/08/13 10:39:05;;;;;;;7.10;4.10;;;;;;;20.98;97.66;97838.33;1815437;78;20913;-60
2022/08/13 10:41:31;;;;;;;5.00;3.90;;;;;;;21.04;98.16;97831.42;1821996;78;20886;-60
2022/08/13 10:44:00;;;;;;;7.90;4.20;;;;;;;21.07;97.83;97825.29;1821966;78;20940;-60
2022/08/13 10:46:33;;;;;;;4.35;3.70;;;;;;;21.03;97.46;97829.27;1822007;78;21115;-59
2022/08/13 10:48:59;;;;;;;4.87;4.08;;;;;;;21.00;97.27;97831.94;1822986;78;21384;-60
2022/08/13 10:51:27;;;;;;;7.05;4.35;;;;;;;20.99;97.23;97828.98;1806317;78;21397;-60
2022/08/13 10:54:00;;;;;;;6.22;4.55;;;;;;;21.02;97.34;97822.83;1815207;78;20972;-60
2022/08/13 10:56:29;;;;;;;5.17;4.12;;;;;;;21.10;96.98;97825.34;1821446;78;20945;-60
2022/08/13 10:59:01;;;;;;;6.20;4.53;;;;;;;21.23;97.16;97813.70;1823527;78;21071;-59
2022/08/13 11:01:29;;;;;;;7.37;5.10;;;;;;;21.39;96.22;97817.08;1816214;78;20893;-60
2022/08/13 11:04:01;;;;;;;6.83;5.33;;;;;;;21.49;95.21;97822.48;1821863;78;20877;-60
2022/08/13 11:06:28;;;;;;;6.97;5.78;;;;;;;21.58;94.46;97818.36;1822737;78;21505;-59
2022/08/13 11:08:57;;;;;;;7.80;5.58;;;;;;;21.70;94.55;97816.80;1818345;78;20903;-59
2022/08/13 11:11:24;;;;;;;8.10;5.80;;;;;;;21.86;94.14;97813.93;1822907;78;21113;-60
2022/08/13 11:13:51;;;;;;;8.98;6.05;;;;;;;22.01;93.75;97819.02;1821701;78;21430;-60
2022/08/13 11:19:02;;;;;;;8.38;6.47;;;;;;;22.04;91.32;97812.83;1811958;78;21007;-59
2022/08/13 11:21:29;;;;;;;10.63;6.28;;;;;;;21.97;91.28;97811.38;1816311;78;20907;-60
2022/08/13 11:23:56;;;;;;;6.80;6.12;;;;;;;21.88;91.24;97808.89;1821363;78;21236;-59
2022/08/13 11:26:28;;;;;;;8.38;6.10;;;;;;;21.81;91.08;97813.64;1822060;78;20907;-59
2022/08/13 11:28:54;;;;;;;12.80;6.67;;;;;;;21.69;90.45;97820.66;1822646;78;20995;-60
2022/08/13 11:31:22;;;;;;;11.20;7.15;;;;;;;21.64;91.10;97815.55;1823799;78;21417;-59
2022/08/13 11:33:48;;;;;;;10.43;6.78;;;;;;;21.63;91.21;97817.26;1821926;77;20960;-59
2022/08/13 11:36:16;;;;;;;11.40;6.87;;;;;;;21.59;90.89;97815.86;1796955;78;21102;-59
2022/08/13 11:38:42;;;;;;;9.18;6.90;;;;;;;21.57;91.31;97808.63;1810528;78;20964;-60
2022/08/13 11:41:09;;;;;;;8.70;6.62;;;;;;;21.61;91.76;97808.66;1815649;78;20872;-60
2022/08/13 11:43:36;;;;;;;11.25;7.15;;;;;;;21.61;91.67;97805.94;1820750;78;20893;-60
2022/08/13 11:46:03;;;;;;;9.90;7.22;;;;;;;21.55;91.36;97813.63;1781546;80;20900;-59
2022/08/13 11:48:30;;;;;;;8.33;7.33;;;;;;;21.46;91.34;97806.86;1819029;78;21187;-59
2022/08/13 11:50:57;;;;;;;13.25;7.50;;;;;;;21.35;91.40;97806.70;1785223;80;20911;-59
2022/08/13 11:53:23;;;;;;;9.90;7.40;;;;;;;21.32;91.79;97809.36;1763994;81;20924;-59
2022/08/13 11:55:51;;;;;;;12.00;7.95;;;;;;;21.32;91.78;97811.52;1747725;81;21094;-59
2022/08/13 11:58:18;;;;;;;10.85;7.67;;;;;;;21.24;92.11;97809.84;1749041;80;20991;-60
2022/08/13 12:00:44;;;;;;;9.23;7.62;;;;;;;21.19;92.38;97806.05;1808676;78;21212;-60